Terminal Aerodrome Forecast
Issued by NWS Wilmington, OH

Current Version | Previous Version | Graphics & Text | Print | Product List | Glossary On
Versions: 1 2 3 4 5 6 7 8 9 10 11 12 13 14 15 16 17 18 19 20 21 22 23 24 25 26 27 28 29 30 31 32 33 34 35
000
FTUS41 KILN 220800 AAC
TAFCVG
TAF AMD
KCVG 220858Z 2209/2312 36006KT P6SM BKN035
      TEMPO 2209/2213 SCT035
     FM221300 35008KT P6SM BKN025
     FM221800 35008KT P6SM SCT030
     FM230000 01004KT P6SM SKC=

USA.gov is the U.S. government's official web portal to all federal, state and local government web resources and services.